Time;durP1;ratioP1;P1;durP2;ratioP2;P2;SDS_P1;SDS_P2;PMS_P1;PMS_P2;Temp;Humidity;BMP_temperature;BMP_pressure;BME280_temperature;BME280_humidity;BME280_pressure;Samples;Min_cycle;Max_cycle;Signal;HPM_P1;HPM_P2
2022/07/27 00:02:05;;;;;;;4.67;2.00;;;;;;;;;;5081326;28;20183;-80
2022/07/27 00:04:30;;;;;;;4.17;2.03;;;17.70;99.90;;;;;;5082226;28;20182;-80
2022/07/27 00:06:56;;;;;;;3.00;2.10;;;;;;;;;;5082254;28;20202;-80
2022/07/27 00:09:23;;;;;;;5.03;2.00;;;;;;;;;;5081900;28;20206;-80
2022/07/27 00:11:49;;;;;;;3.10;1.90;;;17.50;99.90;;;;;;5080280;28;20182;-81
2022/07/27 00:14:14;;;;;;;5.80;1.97;;;17.40;99.90;;;;;;5081406;28;20174;-80
2022/07/27 00:16:41;;;;;;;2.83;2.03;;;;;;;;;;5081245;28;20686;-80
2022/07/27 00:19:07;;;;;;;2.57;1.97;;;;;;;;;;5081894;28;20178;-80
2022/07/27 00:21:32;;;;;;;3.63;2.30;;;17.40;99.90;;;;;;5081322;28;20189;-80
2022/07/27 00:23:58;;;;;;;4.17;2.20;;;17.60;99.90;;;;;;5081540;28;20259;-80
2022/07/27 00:26:24;;;;;;;2.80;1.80;;;17.60;99.90;;;;;;5080794;28;20210;-79
2022/07/27 00:28:50;;;;;;;2.63;2.20;;;17.60;99.90;;;;;;5081139;28;20201;-80
2022/07/27 00:31:16;;;;;;;3.30;2.17;;;17.30;99.90;;;;;;5079556;28;20173;-80
2022/07/27 00:33:42;;;;;;;5.13;2.20;;;;;;;;;;5080784;28;20611;-79
2022/07/27 00:36:08;;;;;;;4.17;2.23;;;16.50;99.90;;;;;;5080000;28;20715;-80
2022/07/27 00:38:34;;;;;;;4.37;2.10;;;;;;;;;;5079057;28;20229;-80
2022/07/27 00:40:59;;;;;;;3.40;2.60;;;17.20;99.90;;;;;;5081250;28;20185;-80
2022/07/27 00:43:25;;;;;;;3.97;2.07;;;;;;;;;;5079250;28;20256;-80
2022/07/27 00:45:51;;;;;;;2.87;1.87;;;17.50;99.90;;;;;;5081611;28;20247;-80
2022/07/27 00:48:17;;;;;;;2.93;2.30;;;;;;;;;;5080074;28;20198;-80
2022/07/27 00:50:45;;;;;;;2.40;2.20;;;17.20;99.90;;;;;;5079368;28;20266;-80
2022/07/27 00:53:12;;;;;;;2.43;2.20;;;17.20;99.90;;;;;;5080552;28;20249;-80
2022/07/27 00:55:38;;;;;;;9.13;2.20;;;17.80;99.90;;;;;;5079324;28;20227;-80
2022/07/27 00:58:07;;;;;;;3.10;2.33;;;17.30;99.90;;;;;;5080746;28;20175;-80
2022/07/27 01:00:35;;;;;;;3.40;2.30;;;16.70;99.90;;;;;;5080370;28;20184;-80
2022/07/27 01:03:01;;;;;;;4.27;2.10;;;17.50;99.90;;;;;;5080425;28;20175;-80
2022/07/27 01:05:27;;;;;;;3.40;2.20;;;17.50;99.90;;;;;;5080050;28;20193;-80
2022/07/27 01:07:54;;;;;;;4.20;2.37;;;17.60;99.90;;;;;;5080012;28;20174;-80
2022/07/27 01:10:20;;;;;;;4.97;2.33;;;17.40;99.90;;;;;;5078629;28;20268;-80
2022/07/27 01:12:45;;;;;;;3.40;2.10;;;17.60;99.90;;;;;;5080507;28;20201;-80
2022/07/27 01:15:12;;;;;;;7.03;2.60;;;;;;;;;;5080863;28;20221;-80
2022/07/27 01:17:38;;;;;;;2.10;1.80;;;17.20;99.90;;;;;;5080505;28;20180;-80
2022/07/27 01:20:04;;;;;;;2.53;2.33;;;17.30;99.90;;;;;;5079371;28;20185;-80
2022/07/27 01:22:30;;;;;;;2.07;1.67;;;17.10;99.90;;;;;;5081358;28;20181;-80
2022/07/27 01:24:56;;;;;;;4.73;2.20;;;;;;;;;;5080536;28;20192;-80
2022/07/27 01:27:22;;;;;;;3.10;1.87;;;17.10;99.90;;;;;;5080176;28;20193;-80
2022/07/27 01:29:48;;;;;;;3.43;2.00;;;17.20;99.90;;;;;;5083973;28;20200;-79
2022/07/27 01:32:14;;;;;;;3.03;2.13;;;17.30;99.90;;;;;;5083469;28;20172;-80
2022/07/27 01:34:40;;;;;;;2.33;2.03;;;17.10;99.90;;;;;;5079146;28;20601;-80
2022/07/27 01:37:06;;;;;;;2.70;2.17;;;;;;;;;;5079090;28;20212;-80
2022/07/27 01:39:32;;;;;;;3.80;2.10;;;16.80;99.90;;;;;;5079155;28;20207;-80
2022/07/27 01:41:59;;;;;;;4.13;2.30;;;16.90;99.90;;;;;;5080843;28;20180;-80
2022/07/27 01:44:25;;;;;;;5.20;2.30;;;16.80;99.90;;;;;;5078671;28;20534;-81
2022/07/27 01:46:51;;;;;;;2.50;1.87;;;;;;;;;;5078939;28;20663;-80
2022/07/27 01:49:17;;;;;;;3.40;1.90;;;16.90;99.90;;;;;;5080014;28;20198;-80
2022/07/27 01:51:43;;;;;;;2.63;1.67;;;;;;;;;;5078841;28;20549;-80
2022/07/27 01:54:09;;;;;;;3.47;1.77;;;16.60;99.90;;;;;;5079774;28;20216;-80
2022/07/27 01:56:35;;;;;;;2.30;1.90;;;;;;;;;;5080120;28;20193;-80
2022/07/27 01:59:01;;;;;;;2.67;1.97;;;16.60;99.90;;;;;;5081935;28;20180;-80
2022/07/27 02:01:27;;;;;;;2.57;2.00;;;;;;;;;;5082301;28;20237;-80
2022/07/27 02:03:53;;;;;;;4.67;2.13;;;;;;;;;;5079586;28;20697;-80
2022/07/27 02:06:18;;;;;;;5.80;2.67;;;16.30;99.90;;;;;;5077860;28;20192;-80
2022/07/27 02:08:44;;;;;;;3.80;2.47;;;;;;;;;;5077545;28;20247;-80
2022/07/27 02:13:55;;;;;;;6.33;2.43;;;;;;;;;;5079210;28;20199;-80
2022/07/27 02:16:20;;;;;;;6.33;2.97;;;16.30;99.90;;;;;;5079103;28;20277;-80
2022/07/27 02:18:46;;;;;;;4.80;2.43;;;16.10;99.90;;;;;;5080606;28;20224;-80
2022/07/27 02:21:12;;;;;;;5.87;2.53;;;;;;;;;;5083358;28;20174;-80
2022/07/27 02:23:43;;;;;;;2.93;2.30;;;16.20;99.90;;;;;;5081847;28;20551;-80
2022/07/27 02:26:08;;;;;;;6.53;2.00;;;16.00;99.90;;;;;;5082245;28;20202;-80
2022/07/27 02:28:35;;;;;;;3.03;2.13;;;16.10;99.90;;;;;;5083180;28;20185;-80
2022/07/27 02:31:01;;;;;;;3.20;2.10;;;16.20;99.90;;;;;;5083809;28;20215;-80
2022/07/27 02:33:27;;;;;;;2.97;2.13;;;16.30;99.90;;;;;;5081935;28;20220;-80
2022/07/27 02:35:52;;;;;;;4.87;1.90;;;16.40;99.90;;;;;;5082321;28;20235;-80
2022/07/27 02:38:18;;;;;;;4.90;2.00;;;16.10;99.90;;;;;;5081100;28;20219;-80
2022/07/27 02:40:44;;;;;;;3.13;2.27;;;16.10;99.90;;;;;;5082096;28;20207;-80
2022/07/27 02:43:10;;;;;;;4.10;2.10;;;;;;;;;;5082360;28;20185;-80
2022/07/27 02:45:36;;;;;;;3.23;2.00;;;16.00;99.90;;;;;;5081918;28;20605;-80
2022/07/27 02:48:02;;;;;;;3.97;2.10;;;;;;;;;;5082076;28;20188;-80
2022/07/27 02:50:28;;;;;;;4.50;2.70;;;16.10;99.90;;;;;;5083099;28;20165;-80
2022/07/27 02:52:54;;;;;;;2.77;2.40;;;;;;;;;;5083895;28;20624;-80
2022/07/27 02:55:19;;;;;;;2.93;2.43;;;15.80;99.90;;;;;;5082388;28;20261;-80
2022/07/27 02:57:45;;;;;;;5.03;2.53;;;;;;;;;;5082092;28;20192;-80
2022/07/27 03:00:14;;;;;;;2.37;2.13;;;15.90;99.90;;;;;;5084012;28;20277;-80
2022/07/27 03:02:40;;;;;;;7.07;3.03;;;15.80;99.90;;;;;;5082760;28;20587;-80
2022/07/27 03:05:07;;;;;;;3.07;2.40;;;15.90;99.90;;;;;;5082238;28;20628;-80
2022/07/27 03:07:33;;;;;;;4.77;2.67;;;15.90;99.90;;;;;;5084048;28;20168;-80
2022/07/27 03:09:59;;;;;;;5.80;2.27;;;;;;;;;;5086696;28;20169;-80
2022/07/27 03:12:25;;;;;;;3.73;2.27;;;;;;;;;;5083842;28;20560;-80
2022/07/27 03:14:51;;;;;;;2.87;2.40;;;15.80;99.90;;;;;;5083420;28;20169;-80
2022/07/27 03:17:17;;;;;;;4.37;2.50;;;16.30;99.90;;;;;;5082988;28;20181;-79
2022/07/27 03:19:43;;;;;;;2.30;2.10;;;;;;;;;;5082966;28;20196;-80
2022/07/27 03:22:09;;;;;;;2.97;2.30;;;15.80;99.90;;;;;;5081160;28;20193;-80
2022/07/27 03:24:35;;;;;;;3.57;2.60;;;;;;;;;;5082342;28;20172;-79
2022/07/27 03:27:01;;;;;;;3.57;2.50;;;;;;;;;;5082248;28;20222;-80
2022/07/27 03:29:26;;;;;;;2.63;2.43;;;16.20;99.90;;;;;;5080035;28;20184;-80
2022/07/27 03:31:52;;;;;;;4.73;2.80;;;16.20;99.90;;;;;;5082239;28;20176;-80
2022/07/27 03:34:18;;;;;;;4.60;2.83;;;15.90;99.90;;;;;;5081459;28;20181;-80
2022/07/27 03:36:45;;;;;;;5.53;2.17;;;;;;;;;;5082637;28;20201;-80
2022/07/27 03:39:11;;;;;;;6.10;2.50;;;16.00;99.90;;;;;;5080769;28;20204;-80
2022/07/27 03:41:38;;;;;;;2.87;2.50;;;15.80;99.90;;;;;;5081711;28;20650;-80
2022/07/27 03:44:04;;;;;;;4.00;2.83;;;16.00;99.90;;;;;;5081318;28;20237;-80
2022/07/27 03:46:30;;;;;;;7.30;3.07;;;;;;;;;;5081780;28;20689;-80
2022/07/27 03:48:56;;;;;;;3.97;2.70;;;15.80;99.90;;;;;;5081409;28;20255;-80
2022/07/27 03:51:22;;;;;;;5.23;3.17;;;;;;;;;;5080343;28;20226;-80
2022/07/27 03:53:48;;;;;;;4.23;2.33;;;;;;;;;;5082476;28;20243;-80
2022/07/27 03:56:14;;;;;;;3.03;2.40;;;15.70;99.90;;;;;;5080966;28;20202;-80
2022/07/27 03:58:39;;;;;;;7.03;2.70;;;15.90;99.90;;;;;;5081624;28;20674;-80
2022/07/27 04:01:05;;;;;;;3.63;2.63;;;16.20;99.90;;;;;;5080130;28;20173;-80
2022/07/27 04:03:31;;;;;;;2.90;2.60;;;;;;;;;;5081418;28;20174;-80
2022/07/27 04:05:57;;;;;;;2.70;2.50;;;16.20;99.90;;;;;;5081793;28;20275;-80
2022/07/27 04:08:22;;;;;;;5.90;2.80;;;16.20;99.90;;;;;;5079413;28;20650;-80
2022/07/27 04:10:48;;;;;;;4.77;2.83;;;16.00;99.90;;;;;;5082050;28;20262;-80
2022/07/27 04:13:14;;;;;;;3.83;2.67;;;15.80;99.90;;;;;;5080106;28;20177;-80
2022/07/27 04:15:40;;;;;;;3.20;2.90;;;15.80;99.90;;;;;;5080722;28;20228;-81
2022/07/27 04:18:06;;;;;;;5.53;2.73;;;15.80;99.90;;;;;;5081494;28;20174;-80
2022/07/27 04:20:32;;;;;;;4.90;2.60;;;;;;;;;;5080315;28;20169;-80
2022/07/27 04:22:57;;;;;;;3.00;2.50;;;15.80;99.90;;;;;;5081541;28;20199;-80
2022/07/27 04:25:23;;;;;;;3.10;2.20;;;;;;;;;;5082454;28;20194;-81
2022/07/27 04:27:53;;;;;;;3.27;2.20;;;15.90;99.90;;;;;;5081631;28;20176;-81
2022/07/27 04:30:18;;;;;;;2.17;1.90;;;15.80;99.90;;;;;;5081694;28;20177;-81
2022/07/27 04:32:44;;;;;;;2.97;2.13;;;15.70;99.90;;;;;;5079676;28;20524;-81
2022/07/27 04:35:10;;;;;;;4.50;2.50;;;;;;;;;;5081614;28;20200;-81
2022/07/27 04:37:36;;;;;;;2.43;2.20;;;;;;;;;;5081678;28;20177;-81
2022/07/27 04:40:03;;;;;;;3.93;2.50;;;16.00;99.90;;;;;;5080552;28;20223;-82
2022/07/27 04:42:28;;;;;;;2.77;2.10;;;15.90;99.90;;;;;;5081637;28;20246;-81
2022/07/27 04:44:54;;;;;;;4.33;2.50;;;15.90;99.90;;;;;;5080160;28;20648;-81
2022/07/27 04:47:20;;;;;;;3.93;2.43;;;15.90;99.90;;;;;;5082797;28;20177;-83
2022/07/27 04:49:46;;;;;;;2.30;2.10;;;;;;;;;;5083835;28;20173;-83
2022/07/27 04:52:14;;;;;;;2.70;2.50;;;15.90;99.90;;;;;;5084385;28;20226;-82
2022/07/27 04:54:40;;;;;;;4.43;2.60;;;15.90;99.90;;;;;;5083078;28;20176;-83
2022/07/27 04:57:06;;;;;;;4.63;2.87;;;;;;;;;;5081199;28;20215;-83
2022/07/27 04:59:32;;;;;;;5.20;3.17;;;15.90;99.90;;;;;;5082602;28;20214;-83
2022/07/27 05:01:58;;;;;;;4.37;2.73;;;;;;;;;;5081850;28;20584;-82
2022/07/27 05:04:23;;;;;;;3.77;2.50;;;15.60;99.90;;;;;;5080540;28;20205;-82
2022/07/27 05:06:49;;;;;;;3.47;2.83;;;;;;;;;;5081207;28;20643;-82
2022/07/27 05:09:15;;;;;;;3.20;2.40;;;15.60;99.90;;;;;;5079080;28;20203;-81
2022/07/27 05:11:41;;;;;;;8.00;2.90;;;;;;;;;;5081004;28;20623;-82
2022/07/27 05:14:07;;;;;;;5.43;3.00;;;;;;;;;;5081126;28;20242;-82
2022/07/27 05:16:33;;;;;;;4.27;2.70;;;;;;;;;;5080592;28;20193;-81
2022/07/27 05:19:00;;;;;;;7.27;2.80;;;;;;;;;;5078758;28;20197;-82
2022/07/27 05:21:28;;;;;;;4.33;2.70;;;;;;;;;;5080955;28;20300;-83
2022/07/27 05:23:54;;;;;;;5.50;2.73;;;;;;;;;;5081321;28;20216;-82
2022/07/27 05:26:21;;;;;;;3.53;2.40;;;;;;;;;;5079294;28;20233;-83
2022/07/27 05:28:47;;;;;;;4.00;3.27;;;16.40;99.90;;;;;;5077060;28;20264;-79
2022/07/27 05:31:12;;;;;;;4.13;2.47;;;16.40;99.90;;;;;;5076925;28;20628;-79
2022/07/27 05:33:38;;;;;;;3.23;2.83;;;;;;;;;;5077565;28;20173;-80
2022/07/27 05:36:04;;;;;;;2.97;2.60;;;;;;;;;;5076562;28;20289;-79
2022/07/27 05:38:33;;;;;;;2.83;2.43;;;;;;;;;;5076473;28;20202;-80
2022/07/27 05:40:59;;;;;;;4.73;2.20;;;;;;;;;;5074756;28;20697;-79
2022/07/27 05:43:25;;;;;;;4.67;2.80;;;;;;;;;;5074873;28;20177;-80
2022/07/27 05:45:53;;;;;;;2.50;2.30;;;16.40;99.90;;;;;;5073110;28;20226;-80
2022/07/27 05:48:19;;;;;;;4.63;2.80;;;;;;;;;;5074972;28;20186;-80
2022/07/27 05:50:45;;;;;;;3.43;2.80;;;16.30;99.90;;;;;;5074609;28;20553;-80
2022/07/27 05:53:11;;;;;;;4.40;2.50;;;;;;;;;;5074087;28;20177;-80
2022/07/27 05:55:37;;;;;;;5.50;2.43;;;;;;;;;;5074835;28;20204;-80
2022/07/27 05:58:03;;;;;;;5.70;2.80;;;16.70;99.90;;;;;;5078502;28;20218;-80
2022/07/27 06:00:29;;;;;;;4.90;2.50;;;16.40;99.90;;;;;;5075877;28;20582;-82
2022/07/27 06:02:55;;;;;;;3.27;2.70;;;;;;;;;;5080846;28;20684;-83
2022/07/27 06:05:21;;;;;;;3.93;2.50;;;;;;;;;;5079788;28;20288;-83
2022/07/27 06:08:01;;;;;;;5.27;2.60;;;;;;;;;;5080188;28;20177;-83
2022/07/27 06:10:29;;;;;;;3.97;2.37;;;16.40;99.90;;;;;;5080905;28;20160;-81
2022/07/27 06:12:55;;;;;;;3.70;3.00;;;16.50;99.90;;;;;;5080901;28;20173;-81
2022/07/27 06:15:21;;;;;;;3.60;2.80;;;;;;;;;;5081180;28;20200;-81
2022/07/27 06:17:49;;;;;;;3.27;2.23;;;;;;;;;;5080637;28;20579;-82
2022/07/27 06:20:15;;;;;;;4.20;2.53;;;;;;;;;;5080901;28;20201;-81
2022/07/27 06:22:49;;;;;;;5.70;2.70;;;17.00;99.90;;;;;;5079641;28;20186;-82
2022/07/27 06:25:16;;;;;;;3.13;2.40;;;17.00;99.90;;;;;;5083422;28;20221;-81
2022/07/27 06:27:42;;;;;;;3.73;2.40;;;17.10;99.90;;;;;;5081405;28;20202;-81
2022/07/27 06:30:09;;;;;;;5.10;2.73;;;17.50;99.90;;;;;;5079822;28;20255;-81
2022/07/27 06:32:35;;;;;;;5.37;2.30;;;17.20;99.90;;;;;;5080056;28;20182;-81
2022/07/27 06:35:01;;;;;;;2.77;2.23;;;17.50;99.90;;;;;;5088098;28;20220;-81
2022/07/27 06:37:29;;;;;;;10.40;2.73;;;;;;;;;;5089237;28;20181;-80
2022/07/27 06:39:59;;;;;;;6.90;2.07;;;17.50;99.90;;;;;;5084071;28;20202;-81
2022/07/27 06:42:25;;;;;;;3.27;2.23;;;17.90;99.90;;;;;;5078033;28;20621;-81
2022/07/27 06:44:51;;;;;;;2.53;1.80;;;17.70;99.90;;;;;;5078650;28;20167;-81
2022/07/27 06:47:17;;;;;;;2.50;1.53;;;17.80;99.90;;;;;;5078409;28;20242;-81
2022/07/27 06:49:43;;;;;;;4.03;1.77;;;;;;;;;;5077128;28;20696;-81
2022/07/27 06:52:09;;;;;;;3.03;1.77;;;;;;;;;;5077157;28;20254;-81
2022/07/27 06:54:35;;;;;;;2.17;1.83;;;;;;;;;;5076869;28;20179;-81
2022/07/27 06:57:01;;;;;;;4.97;2.00;;;;;;;;;;5078497;28;20182;-81
2022/07/27 06:59:28;;;;;;;2.73;1.87;;;18.10;99.90;;;;;;5076919;28;20245;-81
2022/07/27 07:01:54;;;;;;;3.47;2.23;;;18.20;99.90;;;;;;5078475;28;20202;-81
2022/07/27 07:04:20;;;;;;;2.50;1.83;;;;;;;;;;5078622;28;20628;-81
2022/07/27 07:06:46;;;;;;;4.40;2.10;;;;;;;;;;5080190;28;20210;-81
2022/07/27 07:09:12;;;;;;;3.40;1.97;;;;;;;;;;5082317;28;20180;-81
2022/07/27 07:11:37;;;;;;;2.60;2.40;;;18.20;99.90;;;;;;5083270;28;20182;-81
2022/07/27 07:14:03;;;;;;;3.70;2.43;;;18.20;99.90;;;;;;5081255;28;20184;-81
2022/07/27 07:16:29;;;;;;;4.70;2.23;;;18.20;99.90;;;;;;5082697;28;20223;-81
2022/07/27 07:18:55;;;;;;;2.07;1.77;;;;;;;;;;5082063;28;20255;-81
2022/07/27 07:21:21;;;;;;;3.93;2.10;;;18.30;99.90;;;;;;5080656;28;20181;-81
2022/07/27 07:23:47;;;;;;;6.93;2.70;;;;;;;;;;5080365;28;20186;-81
2022/07/27 07:26:12;;;;;;;3.77;2.20;;;18.20;99.90;;;;;;5081739;28;20213;-81
2022/07/27 07:28:38;;;;;;;2.97;1.87;;;18.40;99.90;;;;;;5082897;28;20165;-82
2022/07/27 07:31:04;;;;;;;3.00;2.13;;;;;;;;;;5083991;28;20177;-81
2022/07/27 07:33:30;;;;;;;4.50;2.40;;;18.40;99.90;;;;;;5083730;28;20205;-82
2022/07/27 07:35:56;;;;;;;4.47;1.87;;;18.40;99.90;;;;;;5082953;28;20194;-82
2022/07/27 07:38:22;;;;;;;2.63;2.40;;;;;;;;;;5083298;28;20202;-82
2022/07/27 07:40:48;;;;;;;2.80;2.30;;;;;;;;;;5080865;28;20198;-81
2022/07/27 07:43:14;;;;;;;4.10;2.37;;;18.60;99.90;;;;;;5083149;28;20172;-82
2022/07/27 07:45:41;;;;;;;5.67;2.77;;;18.70;99.90;;;;;;5081546;28;20200;-81
2022/07/27 07:48:07;;;;;;;2.73;2.13;;;18.80;99.90;;;;;;5082567;28;20182;-82
2022/07/27 07:50:33;;;;;;;3.80;2.67;;;18.80;99.90;;;;;;5081939;28;20532;-81
2022/07/27 07:52:59;;;;;;;3.93;2.30;;;;;;;;;;5080691;28;20205;-81
2022/07/27 07:55:26;;;;;;;3.97;2.60;;;18.90;99.90;;;;;;5081457;28;20208;-81
2022/07/27 07:57:53;;;;;;;3.37;2.40;;;19.00;99.90;;;;;;5083730;28;20723;-81
2022/07/27 08:00:20;;;;;;;4.57;2.80;;;19.20;99.90;;;;;;5082925;28;20562;-81
2022/07/27 08:02:52;;;;;;;4.07;2.30;;;19.20;99.90;;;;;;5080895;28;20179;-81
2022/07/27 08:05:19;;;;;;;4.07;2.40;;;19.40;99.90;;;;;;5080159;28;20206;-81
2022/07/27 08:07:45;;;;;;;4.80;2.27;;;19.40;99.90;;;;;;5078445;28;20192;-81
2022/07/27 08:10:12;;;;;;;6.43;2.67;;;19.50;99.90;;;;;;5078350;28;20180;-81
2022/07/27 08:12:41;;;;;;;6.10;2.10;;;19.60;99.90;;;;;;5078305;28;20276;-81
2022/07/27 08:15:08;;;;;;;4.10;2.27;;;19.90;99.90;;;;;;5079790;28;20219;-80
2022/07/27 08:17:34;;;;;;;3.47;2.20;;;20.00;99.90;;;;;;5079447;28;20184;-81
2022/07/27 08:20:00;;;;;;;2.77;2.40;;;20.40;99.90;;;;;;5079947;28;20207;-81
2022/07/27 08:22:26;;;;;;;3.03;2.20;;;20.40;99.90;;;;;;5080727;28;20177;-81
2022/07/27 08:24:52;;;;;;;4.27;2.57;;;20.60;99.90;;;;;;5080054;28;20614;-82
2022/07/27 08:27:17;;;;;;;6.27;2.40;;;20.70;99.90;;;;;;5080234;28;20218;-81
2022/07/27 08:29:43;;;;;;;2.83;2.50;;;;;;;;;;5080111;28;20203;-82
2022/07/27 08:32:09;;;;;;;3.97;2.80;;;20.60;99.90;;;;;;5081032;28;20563;-81
2022/07/27 08:34:35;;;;;;;4.57;2.37;;;20.60;99.90;;;;;;5080919;28;20180;-82
2022/07/27 08:37:01;;;;;;;4.27;2.50;;;20.60;99.90;;;;;;5080168;28;20387;-81
2022/07/27 08:39:27;;;;;;;3.40;2.40;;;20.70;99.90;;;;;;5080602;28;20252;-79
2022/07/27 08:41:53;;;;;;;3.87;2.43;;;20.70;99.90;;;;;;5080366;28;20177;-81
2022/07/27 08:44:23;;;;;;;7.13;2.40;;;20.80;99.90;;;;;;5080461;28;20185;-81
2022/07/27 08:46:50;;;;;;;3.47;2.47;;;20.90;99.90;;;;;;5079007;28;20201;-81
2022/07/27 08:49:17;;;;;;;5.47;2.80;;;21.00;99.90;;;;;;5080459;28;20601;-81
2022/07/27 08:51:43;;;;;;;5.87;2.70;;;21.20;99.90;;;;;;5080974;28;20579;-79
2022/07/27 08:54:10;;;;;;;5.37;2.77;;;21.50;99.90;;;;;;5079221;28;20192;-81
2022/07/27 08:56:36;;;;;;;6.23;3.20;;;21.90;99.90;;;;;;5078658;28;20217;-79
2022/07/27 08:59:03;;;;;;;4.27;2.57;;;22.10;99.90;;;;;;5080596;28;20560;-79
2022/07/27 09:01:32;;;;;;;3.37;2.60;;;22.20;99.90;;;;;;5080755;28;20255;-79
2022/07/27 09:03:58;;;;;;;8.63;2.60;;;22.30;99.90;;;;;;5081278;28;20171;-82
2022/07/27 09:06:48;;;;;;;5.07;2.50;;;22.30;99.90;;;;;;5079695;28;20205;-79
2022/07/27 09:09:19;;;;;;;4.30;2.60;;;22.50;99.90;;;;;;5079336;28;20240;-82
2022/07/27 09:12:08;;;;;;;4.37;2.73;;;22.80;99.90;;;;;;5079786;28;20173;-79
2022/07/27 09:14:36;;;;;;;3.80;2.50;;;23.10;99.90;;;;;;5080836;28;20481;-79
2022/07/27 09:17:21;;;;;;;3.90;2.30;;;23.30;99.90;;;;;;5080956;28;20283;-79
2022/07/27 09:19:59;;;;;;;6.20;2.00;;;23.10;99.90;;;;;;5081060;28;20253;-79
2022/07/27 09:22:45;;;;;;;2.90;2.13;;;23.10;99.90;;;;;;5080983;28;20174;-79
2022/07/27 09:25:13;;;;;;;2.90;2.30;;;23.20;99.90;;;;;;5081569;28;20280;-79
2022/07/27 09:27:40;;;;;;;2.00;1.80;;;23.50;99.90;;;;;;5080350;28;20170;-80
2022/07/27 09:30:11;;;;;;;5.87;2.10;;;24.00;99.90;;;;;;5080340;28;20193;-79
2022/07/27 09:32:38;;;;;;;2.77;2.20;;;24.20;99.90;;;;;;5079963;28;20168;-80
2022/07/27 09:35:22;;;;;;;2.73;2.40;;;24.20;99.90;;;;;;5080027;28;20628;-79
2022/07/27 09:37:47;;;;;;;3.13;1.93;;;24.30;99.90;;;;;;5078842;28;20208;-80
2022/07/27 09:40:16;;;;;;;5.07;2.37;;;24.30;99.90;;;;;;5080194;28;20212;-82
2022/07/27 09:42:42;;;;;;;3.73;1.87;;;24.20;99.90;;;;;;5079666;28;20173;-79
2022/07/27 09:45:32;;;;;;;3.63;2.00;;;24.20;99.90;;;;;;5078535;28;20203;-79
2022/07/27 09:48:14;;;;;;;4.13;1.80;;;24.20;99.90;;;;;;5079631;28;20161;-79
2022/07/27 09:50:46;;;;;;;1.87;1.67;;;24.10;99.90;;;;;;5079927;28;20717;-79
2022/07/27 09:53:20;;;;;;;3.13;1.70;;;24.20;99.90;;;;;;5079600;28;20157;-79
2022/07/27 09:55:59;;;;;;;2.83;1.80;;;24.40;99.90;;;;;;5079113;28;20239;-79
2022/07/27 09:58:48;;;;;;;5.00;2.00;;;24.50;99.90;;;;;;5078768;28;20221;-82
2022/07/27 10:01:22;;;;;;;5.10;1.80;;;24.60;99.90;;;;;;5077482;28;20278;-79
2022/07/27 10:03:52;;;;;;;4.80;1.60;;;24.80;99.90;;;;;;5080360;28;20615;-79
2022/07/27 10:06:19;;;;;;;3.73;1.80;;;24.90;99.90;;;;;;5078612;28;20201;-79
2022/07/27 10:08:48;;;;;;;1.93;1.63;;;24.90;99.90;;;;;;5078289;28;20204;-79
2022/07/27 10:11:15;;;;;;;2.73;1.70;;;25.10;99.90;;;;;;5079858;28;20220;-79
2022/07/27 10:13:41;;;;;;;2.80;1.67;;;24.90;99.90;;;;;;5079787;28;20198;-79
2022/07/27 10:16:12;;;;;;;4.10;1.70;;;24.90;99.90;;;;;;5080134;28;20239;-79
2022/07/27 10:19:03;;;;;;;2.80;1.77;;;24.80;99.90;;;;;;5080256;28;20244;-79
2022/07/27 10:21:29;;;;;;;3.30;1.50;;;24.60;99.90;;;;;;5079129;28;20205;-79
2022/07/27 10:24:30;;;;;;;6.47;1.90;;;24.40;99.90;;;;;;5080507;28;20617;-79
2022/07/27 10:26:56;;;;;;;2.87;1.80;;;24.60;99.90;;;;;;5073557;28;20273;-79
2022/07/27 10:29:22;;;;;;;3.70;1.63;;;24.80;99.90;;;;;;5080067;28;20184;-80
2022/07/27 10:31:51;;;;;;;5.20;1.90;;;25.20;99.90;;;;;;5079920;28;20207;-80
2022/07/27 10:34:34;;;;;;;3.43;1.90;;;25.70;99.90;;;;;;5078353;28;20188;-80
2022/07/27 10:37:22;;;;;;;4.67;1.87;;;26.40;99.90;;;;;;5078952;28;20212;-80
2022/07/27 10:43:05;;;;;;;5.27;1.73;;;27.20;99.90;;;;;;5084116;28;20211;-79
2022/07/27 10:45:43;;;;;;;4.73;1.83;;;27.50;99.90;;;;;;5084007;28;20193;-79
2022/07/27 10:48:39;;;;;;;4.83;1.60;;;27.60;99.90;;;;;;5083290;28;20672;-80
2022/07/27 10:51:07;;;;;;;2.40;1.40;;;27.60;99.90;;;;;;5082681;28;20181;-82
2022/07/27 10:53:41;;;;;;;1.77;1.30;;;27.70;99.90;;;;;;5084309;28;20635;-79
2022/07/27 10:56:07;;;;;;;2.77;1.70;;;27.80;99.90;;;;;;5083211;28;20342;-79
2022/07/27 10:58:33;;;;;;;2.87;1.50;;;27.90;99.90;;;;;;5084664;28;20262;-80
2022/07/27 11:01:06;;;;;;;2.03;1.20;;;28.10;99.90;;;;;;5084689;28;20171;-80
2022/07/27 11:03:38;;;;;;;3.10;1.40;;;28.20;99.90;;;;;;5082327;28;20186;-79
2022/07/27 11:06:26;;;;;;;3.80;1.50;;;28.10;99.90;;;;;;5083266;28;20235;-80
2022/07/27 11:08:53;;;;;;;2.70;1.50;;;27.60;99.90;;;;;;5083942;28;20199;-80
2022/07/27 11:11:21;;;;;;;2.63;1.47;;;27.00;99.90;;;;;;5083383;28;20187;-82
2022/07/27 11:13:56;;;;;;;6.70;1.47;;;26.50;99.90;;;;;;5084556;28;20183;-79
2022/07/27 11:16:22;;;;;;;5.27;1.87;;;25.80;99.90;;;;;;5085070;28;20207;-80
2022/07/27 11:18:54;;;;;;;2.67;1.50;;;25.40;99.90;;;;;;5082767;28;20214;-79
2022/07/27 11:21:35;;;;;;;3.27;1.40;;;25.00;99.90;;;;;;5083067;28;20182;-79
2022/07/27 11:24:08;;;;;;;2.50;1.47;;;24.80;99.90;;;;;;5081834;28;20205;-79
2022/07/27 11:26:48;;;;;;;2.30;1.87;;;24.40;99.90;;;;;;5083725;28;20556;-79
2022/07/27 11:29:16;;;;;;;3.73;1.80;;;24.40;99.90;;;;;;5082556;28;20206;-79
2022/07/27 11:31:44;;;;;;;2.23;1.70;;;24.80;99.90;;;;;;5082889;28;20181;-79
2022/07/27 11:34:12;;;;;;;1.43;1.33;;;24.90;99.90;;;;;;5083310;28;20185;-79
2022/07/27 11:36:48;;;;;;;2.40;1.60;;;24.80;99.90;;;;;;5082054;28;20207;-79
2022/07/27 11:39:23;;;;;;;2.40;1.53;;;24.60;99.90;;;;;;5082172;28;20220;-79
2022/07/27 11:41:53;;;;;;;2.53;1.90;;;24.30;99.90;;;;;;5082520;28;20603;-78
2022/07/27 11:44:19;;;;;;;2.13;1.50;;;24.20;99.90;;;;;;5083296;28;20163;-79
2022/07/27 11:46:47;;;;;;;6.20;1.70;;;24.20;99.90;;;;;;5083588;28;20199;-81
2022/07/27 11:49:25;;;;;;;3.43;1.60;;;24.10;99.90;;;;;;5084379;28;20350;-82
2022/07/27 11:51:52;;;;;;;3.43;2.07;;;24.10;99.90;;;;;;5081450;28;20180;-78
2022/07/27 11:54:19;;;;;;;6.17;1.90;;;24.00;99.90;;;;;;5085591;28;20666;-81
2022/07/27 11:56:48;;;;;;;2.03;1.60;;;23.90;99.90;;;;;;5083872;28;20226;-78
2022/07/27 11:59:19;;;;;;;3.10;1.70;;;23.70;99.90;;;;;;5082817;28;20232;-78
2022/07/27 12:01:51;;;;;;;3.23;1.70;;;23.50;99.90;;;;;;5085252;28;20223;-82
2022/07/27 12:04:26;;;;;;;1.33;1.20;;;23.50;99.90;;;;;;5083191;28;20176;-81
2022/07/27 12:07:03;;;;;;;3.63;1.47;;;23.30;99.90;;;;;;5082543;28;20199;-79
2022/07/27 12:09:31;;;;;;;4.83;1.90;;;23.30;99.90;;;;;;5083585;28;20186;-84
2022/07/27 12:12:00;;;;;;;8.33;2.17;;;23.30;99.90;;;;;;5084168;28;20195;-82
2022/07/27 12:14:29;;;;;;;5.40;1.70;;;23.20;99.90;;;;;;5085644;28;20173;-82
2022/07/27 12:17:14;;;;;;;2.13;1.70;;;23.30;99.90;;;;;;5085581;28;20688;-81
2022/07/27 12:19:41;;;;;;;5.33;1.70;;;23.40;99.90;;;;;;5086485;28;20194;-81
2022/07/27 12:22:07;;;;;;;3.33;1.60;;;23.40;99.90;;;;;;5084788;28;20715;-81
2022/07/27 12:24:39;;;;;;;6.63;1.60;;;23.60;99.90;;;;;;5085567;28;20182;-80
2022/07/27 12:27:15;;;;;;;2.70;1.40;;;24.60;99.90;;;;;;5084168;28;20166;-81
2022/07/27 12:30:08;;;;;;;2.17;1.33;;;26.00;99.90;;;;;;5082733;28;20212;-79
2022/07/27 12:32:39;;;;;;;3.10;1.53;;;27.20;99.90;;;;;;5084640;28;20208;-80
2022/07/27 12:35:25;;;;;;;1.50;1.27;;;27.90;99.90;;;;;;5082572;28;20202;-79
2022/07/27 12:38:03;;;;;;;4.43;1.40;;;28.40;98.70;;;;;;5080908;28;20161;-79
2022/07/27 12:40:30;;;;;;;3.17;1.60;;;28.30;97.00;;;;;;5082592;28;20234;-79
2022/07/27 12:42:59;;;;;;;2.60;0.97;;;28.50;99.90;;;;;;5082306;28;20226;-78
2022/07/27 12:45:31;;;;;;;4.03;1.37;;;28.20;96.70;;;;;;5081362;28;20243;-79
2022/07/27 12:48:08;;;;;;;3.60;1.50;;;28.20;98.00;;;;;;5082487;28;20173;-79
2022/07/27 12:50:35;;;;;;;2.43;1.10;;;27.90;99.50;;;;;;5082900;28;20277;-80
2022/07/27 12:53:00;;;;;;;2.23;1.47;;;28.00;97.50;;;;;;5083416;28;20617;-79
2022/07/27 12:55:26;;;;;;;1.37;1.10;;;28.20;99.90;;;;;;5083118;28;20198;-80
2022/07/27 12:57:52;;;;;;;3.50;1.13;;;27.80;95.70;;;;;;5082900;28;20192;-80
2022/07/27 13:00:19;;;;;;;3.13;1.10;;;27.30;98.00;;;;;;5084023;28;20209;-80
2022/07/27 13:02:45;;;;;;;2.43;1.40;;;27.40;99.90;;;;;;5083350;28;20178;-80
2022/07/27 13:05:13;;;;;;;2.30;1.20;;;28.70;99.90;;;;;;5083629;28;20201;-80
2022/07/27 13:07:40;;;;;;;3.30;2.00;;;28.70;99.80;;;;;;5082968;28;20174;-80
2022/07/27 13:10:08;;;;;;;4.07;1.50;;;28.40;97.20;;;;;;5082584;28;20179;-80
2022/07/27 13:12:35;;;;;;;2.00;1.10;;;28.10;99.10;;;;;;5082454;28;20166;-80
2022/07/27 13:15:02;;;;;;;2.37;1.27;;;27.30;97.80;;;;;;5083456;28;20266;-80
2022/07/27 13:17:28;;;;;;;3.37;1.53;;;27.40;98.90;;;;;;5082463;28;20179;-80
2022/07/27 13:19:53;;;;;;;3.50;1.70;;;27.90;99.90;;;;;;5082776;28;20592;-80
2022/07/27 13:22:19;;;;;;;2.43;1.50;;;28.00;97.60;;;;;;5082530;28;20263;-79
2022/07/27 13:24:45;;;;;;;2.60;1.30;;;28.00;96.80;;;;;;5081026;28;20179;-80